createdAt,value
2023-09-13T00:00:33.688Z,48.61
2023-09-13T00:01:37.390Z,48.52
2023-09-13T00:02:41.995Z,48.49
2023-09-13T00:03:45.435Z,48.08
2023-09-13T00:04:47.862Z,48.23
2023-09-13T00:05:50.903Z,48.62
2023-09-13T00:06:52.791Z,48.39
2023-09-13T00:07:55.601Z,48.28
2023-09-13T00:08:57.614Z,48.50
2023-09-13T00:10:02.574Z,48.71
2023-09-13T00:11:05.079Z,48.27
2023-09-13T00:12:08.425Z,48.63
2023-09-13T00:13:12.033Z,48.13
2023-09-13T00:14:14.017Z,48.56
2023-09-13T00:15:16.889Z,48.50
2023-09-13T00:16:19.104Z,48.64
2023-09-13T00:17:22.215Z,48.17
2023-09-13T00:18:25.200Z,48.69
2023-09-13T00:19:28.808Z,48.33
2023-09-13T00:20:31.717Z,47.98
2023-09-13T00:21:34.485Z,48.05
2023-09-13T00:22:37.385Z,48.55
2023-09-13T00:23:39.532Z,48.42
2023-09-13T00:24:42.636Z,48.28
2023-09-13T00:25:44.562Z,47.92
2023-09-13T00:26:46.630Z,48.52
2023-09-13T00:27:49.483Z,47.90
2023-09-13T00:28:52.947Z,47.96
2023-09-13T00:29:55.920Z,47.96
2023-09-13T00:30:59.130Z,47.83
2023-09-13T00:32:02.860Z,48.10
2023-09-13T00:33:05.436Z,48.37
2023-09-13T00:34:08.762Z,48.20
2023-09-13T00:35:10.774Z,47.96
2023-09-13T00:36:14.891Z,47.93
2023-09-13T00:37:16.944Z,48.32
2023-09-13T00:38:19.855Z,48.35
2023-09-13T00:39:21.695Z,48.60
2023-09-13T00:40:23.667Z,48.09
2023-09-13T00:41:26.756Z,48.42
2023-09-13T00:42:29.440Z,48.39
2023-09-13T00:43:32.297Z,48.13
2023-09-13T00:44:35.527Z,48.16
2023-09-13T00:45:38.741Z,48.54
2023-09-13T00:46:41.774Z,48.44
2023-09-13T00:47:45.930Z,48.08
2023-09-13T00:48:48.441Z,48.15
2023-09-13T00:49:51.681Z,48.14
2023-09-13T00:50:54.508Z,48.25
2023-09-13T00:51:59.930Z,48.62
2023-09-13T00:53:02.039Z,48.63
2023-09-13T00:54:05.600Z,48.24
2023-09-13T00:55:10.253Z,47.93
2023-09-13T00:56:14.389Z,48.42
2023-09-13T00:57:16.458Z,48.56
2023-09-13T00:58:20.510Z,48.01
2023-09-13T00:59:23.464Z,47.89
2023-09-13T01:00:28.872Z,47.97
2023-09-13T01:01:31.553Z,48.30
2023-09-13T01:02:36.300Z,48.79
2023-09-13T01:03:39.886Z,47.95
2023-09-13T01:04:43.077Z,48.34
2023-09-13T01:05:47.331Z,48.35
2023-09-13T01:06:49.522Z,48.29
2023-09-13T01:07:52.557Z,48.21
2023-09-13T01:08:54.715Z,48.18
2023-09-13T01:09:57.994Z,48.50
2023-09-13T01:10:59.932Z,48.11
2023-09-13T01:12:03.377Z,48.61
2023-09-13T01:13:05.377Z,48.52
2023-09-13T01:14:10.281Z,48.44
2023-09-13T01:15:13.881Z,48.47
2023-09-13T01:16:25.758Z,48.33
2023-09-13T01:17:35.451Z,48.17
2023-09-13T01:18:44.090Z,48.38
2023-09-13T01:19:53.508Z,48.34
2023-09-13T01:21:12.367Z,48.64
2023-09-13T01:22:39.121Z,48.29
2023-09-13T01:24:06.667Z,48.67
2023-09-13T01:25:34.700Z,48.33
2023-09-13T01:26:55.946Z,48.58
2023-09-13T01:28:12.059Z,48.48
2023-09-13T01:29:18.273Z,48.77
2023-09-13T01:30:24.285Z,48.50
2023-09-13T01:31:28.536Z,49.09
2023-09-13T01:32:34.872Z,48.68
2023-09-13T01:33:38.284Z,48.57
2023-09-13T01:34:40.251Z,48.63
2023-09-13T01:35:43.101Z,48.89
2023-09-13T01:36:45.248Z,49.06
2023-09-13T01:37:48.379Z,48.67
2023-09-13T01:38:50.484Z,48.52
2023-09-13T01:39:53.425Z,48.78
2023-09-13T01:41:11.665Z,48.97
2023-09-13T01:42:15.504Z,48.85
2023-09-13T01:43:17.968Z,48.81
2023-09-13T01:44:22.905Z,48.80
2023-09-13T01:45:25.819Z,48.35
2023-09-13T01:46:35.172Z,48.60
2023-09-13T01:47:39.121Z,48.98
2023-09-13T01:48:42.978Z,48.68
2023-09-13T01:49:47.556Z,48.61
2023-09-13T01:50:51.478Z,48.68
2023-09-13T01:51:53.632Z,48.80
2023-09-13T01:52:55.594Z,48.60
2023-09-13T01:53:58.477Z,48.42
2023-09-13T01:55:01.231Z,48.54
2023-09-13T01:56:04.096Z,48.49
2023-09-13T01:57:06.163Z,48.50
2023-09-13T01:58:09.910Z,48.77
2023-09-13T01:59:11.982Z,48.56
2023-09-13T02:00:17.951Z,48.74
2023-09-13T02:01:20.700Z,48.95
2023-09-13T02:02:23.791Z,48.80
2023-09-13T02:03:25.934Z,48.64
2023-09-13T02:04:34.517Z,48.40
2023-09-13T02:05:36.652Z,48.89
2023-09-13T02:06:40.480Z,48.97
2023-09-13T02:07:46.799Z,48.96
2023-09-13T02:08:52.361Z,48.80
2023-09-13T02:09:55.319Z,48.28
2023-09-13T02:10:59.156Z,48.61
2023-09-13T02:12:01.496Z,48.57
2023-09-13T02:13:04.545Z,48.93
2023-09-13T02:14:06.577Z,48.67
2023-09-13T02:15:10.876Z,48.82
2023-09-13T02:16:19.514Z,48.84
2023-09-13T02:17:22.416Z,48.53
2023-09-13T02:18:24.414Z,48.80
2023-09-13T02:19:27.445Z,48.89
2023-09-13T02:20:29.352Z,48.77
2023-09-13T02:21:32.244Z,48.61
2023-09-13T02:22:35.125Z,49.10
2023-09-13T02:23:38.149Z,48.69
2023-09-13T02:24:40.077Z,48.79
2023-09-13T02:25:45.792Z,48.93
2023-09-13T02:26:49.009Z,48.83
2023-09-13T02:27:51.157Z,48.57
2023-09-13T02:28:54.707Z,49.05
2023-09-13T02:29:57.579Z,49.34
2023-09-13T02:31:00.555Z,48.94
2023-09-13T02:32:04.274Z,48.79
2023-09-13T02:33:07.414Z,48.87
2023-09-13T02:34:09.343Z,48.68
2023-09-13T02:35:13.003Z,49.19
2023-09-13T02:36:15.119Z,49.17
2023-09-13T02:37:18.161Z,48.47
2023-09-13T02:38:20.106Z,48.59
2023-09-13T02:39:33.225Z,48.40
2023-09-13T02:40:35.260Z,48.61
2023-09-13T02:41:38.444Z,48.48
2023-09-13T02:42:40.371Z,48.20
2023-09-13T02:43:43.586Z,48.25
2023-09-13T02:44:45.769Z,48.22
2023-09-13T02:45:48.632Z,48.71
2023-09-13T02:46:50.620Z,48.40
2023-09-13T02:47:55.491Z,48.37
2023-09-13T02:48:57.557Z,48.91
2023-09-13T02:50:00.489Z,48.77
2023-09-13T02:51:02.520Z,48.37
2023-09-13T02:52:06.381Z,48.44
2023-09-13T02:53:08.367Z,48.40
2023-09-13T02:54:11.440Z,48.73
2023-09-13T02:55:17.748Z,49.08
2023-09-13T02:56:20.748Z,48.61
2023-09-13T02:57:22.723Z,48.57
2023-09-13T02:58:26.757Z,48.49
2023-09-13T02:59:28.705Z,48.94
2023-09-13T03:00:34.911Z,49.22
2023-09-13T03:01:37.318Z,49.04
2023-09-13T03:02:40.854Z,49.16
2023-09-13T03:03:44.501Z,49.40
2023-09-13T03:04:52.040Z,49.53
2023-09-13T03:05:54.937Z,49.38
2023-09-13T03:06:58.518Z,49.35
2023-09-13T03:08:00.426Z,49.41
2023-09-13T03:09:04.282Z,49.50
2023-09-13T03:10:07.595Z,49.76
2023-09-13T03:11:15.098Z,49.23
2023-09-13T03:12:18.164Z,49.25
2023-09-13T03:13:21.398Z,48.90
2023-09-13T03:14:23.550Z,49.57
2023-09-13T03:15:26.749Z,49.18
2023-09-13T03:16:28.733Z,49.35
2023-09-13T03:17:31.905Z,49.62
2023-09-13T03:18:33.951Z,49.42
2023-09-13T03:19:38.364Z,49.31
2023-09-13T03:20:40.707Z,48.95
2023-09-13T03:21:44.953Z,49.68
2023-09-13T03:22:47.196Z,49.40
2023-09-13T03:23:51.310Z,49.00
2023-09-13T03:24:54.359Z,49.13
2023-09-13T03:25:57.271Z,49.26
2023-09-13T03:26:59.484Z,49.04
2023-09-13T03:28:02.586Z,49.50
2023-09-13T03:29:04.969Z,49.49
2023-09-13T03:30:10.360Z,49.70
2023-09-13T03:31:13.129Z,49.28
2023-09-13T03:32:16.412Z,49.30
2023-09-13T03:33:18.277Z,49.55
2023-09-13T03:34:21.404Z,49.43
2023-09-13T03:35:25.334Z,49.84
2023-09-13T03:36:29.500Z,49.98
2023-09-13T03:37:37.158Z,49.67
2023-09-13T03:38:41.825Z,49.74
2023-09-13T03:39:45.255Z,49.84
2023-09-13T03:40:48.995Z,49.62
2023-09-13T03:41:50.969Z,50.05
2023-09-13T03:42:53.886Z,49.91
2023-09-13T03:43:55.885Z,50.10
2023-09-13T03:44:59.100Z,49.95
2023-09-13T03:46:01.886Z,49.38
2023-09-13T03:47:05.405Z,49.98
2023-09-13T03:48:07.812Z,49.93
2023-09-13T03:49:13.940Z,49.96
2023-09-13T03:50:16.034Z,50.09
2023-09-13T03:51:19.286Z,49.92
2023-09-13T03:52:22.455Z,50.16
2023-09-13T03:53:25.196Z,49.95
2023-09-13T03:54:28.278Z,49.83
2023-09-13T03:55:30.320Z,49.93
2023-09-13T03:56:33.374Z,50.22
2023-09-13T03:57:35.487Z,50.21
2023-09-13T03:58:37.405Z,50.17
2023-09-13T03:59:40.299Z,50.02
2023-09-13T04:00:42.375Z,50.25
2023-09-13T04:01:45.912Z,50.06
2023-09-13T04:02:48.847Z,50.29
2023-09-13T04:03:51.813Z,50.13
2023-09-13T04:04:55.803Z,49.78
2023-09-13T04:05:58.141Z,49.81
2023-09-13T04:07:02.902Z,50.23
2023-09-13T04:08:05.412Z,50.08
2023-09-13T04:09:10.378Z,49.96
2023-09-13T04:10:12.417Z,50.06
2023-09-13T04:11:15.353Z,50.39
2023-09-13T04:12:19.990Z,49.81
2023-09-13T04:13:23.035Z,50.10
2023-09-13T04:14:25.000Z,50.24
2023-09-13T04:15:28.301Z,49.87
2023-09-13T04:16:30.373Z,49.74
2023-09-13T04:17:33.652Z,49.90
2023-09-13T04:18:35.592Z,49.92
2023-09-13T04:19:38.627Z,50.30
2023-09-13T04:20:42.893Z,49.99
2023-09-13T04:21:45.776Z,49.74
2023-09-13T04:22:49.158Z,50.08
2023-09-13T04:23:51.083Z,49.78
2023-09-13T04:24:54.075Z,50.05
2023-09-13T04:25:56.146Z,50.31
2023-09-13T04:26:59.535Z,50.04
2023-09-13T04:28:01.821Z,50.39
2023-09-13T04:29:07.157Z,50.21
2023-09-13T04:30:11.085Z,50.04
2023-09-13T04:31:14.307Z,50.14
2023-09-13T04:32:17.425Z,50.24
2023-09-13T04:33:21.198Z,50.13
2023-09-13T04:34:24.187Z,49.92
2023-09-13T04:35:26.166Z,49.74
2023-09-13T04:36:29.028Z,49.71
2023-09-13T04:37:34.386Z,50.10
2023-09-13T04:38:40.909Z,49.82
2023-09-13T04:39:42.992Z,50.15
2023-09-13T04:40:45.956Z,49.92
2023-09-13T04:41:47.935Z,49.95
2023-09-13T04:42:56.161Z,50.06
2023-09-13T04:43:59.699Z,49.99
2023-09-13T04:45:04.286Z,50.05
2023-09-13T04:46:07.616Z,50.09
2023-09-13T04:47:09.761Z,50.14
2023-09-13T04:48:12.721Z,50.33
2023-09-13T04:49:14.650Z,50.22
2023-09-13T04:50:17.833Z,50.20
2023-09-13T04:51:19.829Z,50.21
2023-09-13T04:52:23.035Z,50.52
2023-09-13T04:53:26.283Z,50.37
2023-09-13T04:54:30.577Z,50.36
2023-09-13T04:55:33.018Z,50.70
2023-09-13T04:56:36.060Z,50.66
2023-09-13T04:57:37.974Z,50.78
2023-09-13T04:58:41.032Z,50.54
2023-09-13T04:59:44.764Z,50.58
2023-09-13T05:00:48.395Z,50.61
2023-09-13T05:01:50.620Z,50.28
2023-09-13T05:02:53.832Z,50.87
2023-09-13T05:03:57.394Z,50.44
2023-09-13T05:05:00.470Z,50.75
2023-09-13T05:06:02.404Z,51.00
2023-09-13T05:07:08.424Z,51.03
2023-09-13T05:08:10.329Z,50.98
2023-09-13T05:09:13.270Z,51.26
2023-09-13T05:10:16.613Z,50.93
2023-09-13T05:11:19.779Z,50.93
2023-09-13T05:12:21.879Z,50.86
2023-09-13T05:13:24.860Z,51.11
2023-09-13T05:14:27.422Z,50.58
2023-09-13T05:15:30.359Z,50.77
2023-09-13T05:16:32.311Z,51.44
2023-09-13T05:17:35.408Z,51.20
2023-09-13T05:18:37.367Z,51.53
2023-09-13T05:19:40.228Z,52.07
2023-09-13T05:20:42.052Z,51.77
2023-09-13T05:21:44.933Z,51.36
2023-09-13T05:22:47.434Z,51.57
2023-09-13T05:23:50.452Z,51.85
2023-09-13T05:24:52.395Z,52.30
2023-09-13T05:25:57.752Z,52.60
2023-09-13T05:26:59.683Z,52.90
2023-09-13T05:28:04.214Z,52.16
2023-09-13T05:29:06.208Z,51.93
2023-09-13T05:30:10.564Z,52.57
2023-09-13T05:31:12.885Z,52.65
2023-09-13T05:32:15.818Z,52.38
2023-09-13T05:33:17.927Z,52.71
2023-09-13T05:34:20.805Z,52.77
2023-09-13T05:35:23.305Z,53.26
2023-09-13T05:36:25.191Z,53.18
2023-09-13T05:37:28.189Z,53.42
2023-09-13T05:38:32.030Z,52.64
2023-09-13T05:39:35.070Z,53.15
2023-09-13T05:40:37.009Z,53.58
2023-09-13T05:41:42.328Z,52.99
2023-09-13T05:42:44.211Z,54.04
2023-09-13T05:43:47.826Z,53.78
2023-09-13T05:44:49.825Z,53.77
2023-09-13T05:45:52.857Z,53.76
2023-09-13T05:46:55.016Z,54.35
2023-09-13T05:48:00.706Z,54.22
2023-09-13T05:49:02.698Z,54.10
2023-09-13T05:50:06.405Z,53.65
2023-09-13T05:51:08.365Z,53.85
2023-09-13T05:52:11.282Z,53.74
2023-09-13T05:53:15.165Z,54.54
2023-09-13T05:54:18.383Z,54.04
2023-09-13T05:55:20.530Z,54.03
2023-09-13T05:56:25.721Z,54.22
2023-09-13T05:57:30.513Z,53.83
2023-09-13T05:58:34.141Z,54.33
2023-09-13T05:59:40.826Z,54.29
2023-09-13T06:00:44.999Z,54.12
2023-09-13T06:01:46.959Z,54.12
2023-09-13T06:02:50.122Z,54.35
2023-09-13T06:03:52.056Z,54.66
2023-09-13T06:04:55.007Z,54.36
2023-09-13T06:05:57.791Z,54.89
2023-09-13T06:07:00.763Z,54.57
2023-09-13T06:08:02.648Z,55.34
2023-09-13T06:09:05.972Z,55.44
2023-09-13T06:10:09.114Z,55.29
2023-09-13T06:11:12.022Z,54.15
2023-09-13T06:12:14.367Z,55.35
2023-09-13T06:13:18.651Z,54.79
2023-09-13T06:14:20.562Z,55.45
2023-09-13T06:15:23.588Z,55.06
2023-09-13T06:16:26.185Z,55.72
2023-09-13T06:17:29.229Z,55.25
2023-09-13T06:18:31.532Z,55.08
2023-09-13T06:19:35.022Z,55.55
2023-09-13T06:20:37.067Z,55.03
2023-09-13T06:21:39.970Z,54.67
2023-09-13T06:22:42.461Z,55.20
2023-09-13T06:23:45.559Z,55.82
2023-09-13T06:24:47.818Z,55.46
2023-09-13T06:25:50.676Z,55.89
2023-09-13T06:26:53.746Z,55.19
2023-09-13T06:27:56.887Z,55.30
2023-09-13T06:29:00.384Z,55.16
2023-09-13T06:30:03.718Z,55.40
2023-09-13T06:31:05.954Z,55.29
2023-09-13T06:32:19.050Z,55.42
2023-09-13T06:33:40.770Z,55.58
2023-09-13T06:34:45.700Z,55.88
2023-09-13T06:35:48.458Z,55.84
2023-09-13T06:36:52.088Z,55.63
2023-09-13T06:37:54.944Z,56.16
2023-09-13T06:38:58.158Z,56.16
2023-09-13T06:40:00.856Z,55.79
2023-09-13T06:41:04.207Z,55.89
2023-09-13T06:42:25.399Z,56.31
2023-09-13T06:43:33.277Z,56.23
2023-09-13T06:44:45.606Z,55.74
2023-09-13T06:46:02.621Z,55.67
2023-09-13T06:47:08.145Z,55.97
2023-09-13T06:48:11.716Z,55.94
2023-09-13T06:49:15.482Z,56.10
2023-09-13T06:50:26.952Z,56.53
2023-09-13T06:53:07.961Z,56.38
2023-09-13T06:54:10.001Z,56.71
2023-09-13T06:55:16.263Z,56.28
2023-09-13T06:56:21.254Z,56.55
2023-09-13T06:58:33.133Z,56.96
2023-09-13T06:59:49.483Z,57.14
2023-09-13T07:01:21.131Z,56.75
2023-09-13T07:02:31.123Z,56.52
2023-09-13T07:03:41.374Z,56.76
2023-09-13T07:06:12.048Z,56.09
2023-09-13T07:07:15.027Z,56.94
2023-09-13T07:08:17.183Z,56.64
2023-09-13T07:09:20.160Z,57.22
2023-09-13T07:10:22.096Z,57.22
2023-09-13T07:11:27.393Z,56.93
2023-09-13T07:12:29.502Z,57.29
2023-09-13T07:13:32.424Z,57.71
2023-09-13T07:14:34.440Z,57.58
2023-09-13T07:15:40.153Z,57.50
2023-09-13T07:16:42.173Z,57.56
2023-09-13T07:17:45.215Z,57.60
2023-09-13T07:18:47.544Z,57.46
2023-09-13T07:19:51.255Z,57.25
2023-09-13T07:20:53.161Z,57.55
2023-09-13T07:21:56.010Z,57.78
2023-09-13T07:22:57.944Z,57.50
2023-09-13T07:24:00.880Z,57.45
2023-09-13T07:25:04.932Z,57.54
2023-09-13T07:26:08.934Z,57.05
2023-09-13T07:27:11.419Z,57.98
2023-09-13T07:28:14.282Z,57.60
2023-09-13T07:29:16.190Z,58.07
2023-09-13T07:30:20.226Z,57.06
2023-09-13T07:31:23.531Z,57.55
2023-09-13T07:32:27.469Z,57.93
2023-09-13T07:33:29.381Z,57.39
2023-09-13T07:34:32.911Z,57.83
2023-09-13T07:35:35.203Z,57.86
2023-09-13T07:36:38.273Z,58.17
2023-09-13T07:37:40.206Z,57.71
2023-09-13T07:38:43.239Z,57.90
2023-09-13T07:39:45.385Z,57.82
2023-09-13T07:40:47.442Z,58.11
2023-09-13T07:41:50.375Z,57.68
2023-09-13T07:42:52.340Z,58.11
2023-09-13T07:43:55.263Z,58.19
2023-09-13T07:44:57.292Z,58.30
2023-09-13T07:46:00.475Z,58.32
2023-09-13T07:47:03.797Z,57.93
2023-09-13T07:48:06.245Z,58.42
2023-09-13T07:49:09.195Z,57.83
2023-09-13T07:50:29.969Z,58.51
2023-09-13T07:51:33.113Z,57.49
2023-09-13T07:53:00.510Z,57.45
2023-09-13T07:54:05.234Z,57.59
2023-09-13T07:55:08.230Z,56.61
2023-09-13T07:56:11.165Z,56.33
2023-09-13T07:57:13.141Z,56.18
2023-09-13T07:58:16.041Z,55.75
2023-09-13T07:59:20.156Z,56.15
2023-09-13T08:00:23.260Z,56.35
2023-09-13T08:01:25.250Z,55.75
2023-09-13T08:02:29.507Z,55.42
2023-09-13T08:03:31.582Z,55.76
2023-09-13T08:04:34.711Z,56.16
2023-09-13T08:05:36.719Z,56.06
2023-09-13T08:06:42.411Z,56.20
2023-09-13T08:07:45.932Z,56.29
2023-09-13T08:08:48.796Z,55.72
2023-09-13T08:09:50.922Z,55.82
2023-09-13T08:10:54.453Z,56.11
2023-09-13T08:11:56.554Z,56.04
2023-09-13T08:12:59.478Z,56.11
2023-09-13T08:14:01.424Z,56.16
2023-09-13T08:15:05.442Z,56.55
2023-09-13T08:16:07.709Z,56.44
2023-09-13T08:17:10.773Z,56.35
2023-09-13T08:18:17.520Z,56.29
2023-09-13T08:19:20.479Z,56.22
2023-09-13T08:20:23.652Z,56.00
2023-09-13T08:21:26.557Z,56.15
2023-09-13T08:22:39.228Z,56.15
2023-09-13T08:23:43.403Z,56.72
2023-09-13T08:24:45.254Z,57.30
2023-09-13T08:25:48.231Z,56.99
2023-09-13T08:26:50.225Z,57.02
2023-09-13T08:27:55.138Z,57.21
2023-09-13T08:28:57.375Z,56.86
2023-09-13T08:30:00.297Z,55.76
2023-09-13T08:31:02.463Z,55.82
2023-09-13T08:32:07.018Z,56.43
2023-09-13T08:33:11.725Z,56.59
2023-09-13T08:34:16.141Z,56.74
2023-09-13T08:35:18.118Z,56.84
2023-09-13T08:36:22.763Z,56.52
2023-09-13T08:37:25.340Z,56.78
2023-09-13T08:38:28.344Z,56.46
2023-09-13T08:39:30.449Z,56.63
2023-09-13T08:40:33.563Z,56.09
2023-09-13T08:41:35.993Z,56.40
2023-09-13T08:42:41.537Z,55.95
2023-09-13T08:43:45.282Z,55.94
2023-09-13T08:44:49.130Z,56.07
2023-09-13T08:45:52.625Z,55.22
2023-09-13T08:46:59.647Z,54.96
2023-09-13T08:48:03.093Z,55.67
2023-09-13T08:49:08.924Z,56.10
2023-09-13T08:50:13.433Z,56.11
2023-09-13T08:51:18.659Z,55.86
2023-09-13T08:52:23.179Z,56.21
2023-09-13T08:53:27.443Z,56.40
2023-09-13T08:54:37.957Z,56.53
2023-09-13T08:55:48.494Z,56.27
2023-09-13T08:56:50.502Z,56.04
2023-09-13T08:57:54.632Z,56.57
2023-09-13T08:58:56.619Z,56.45
2023-09-13T08:59:59.699Z,56.82
2023-09-13T09:01:05.116Z,56.56
2023-09-13T09:02:16.605Z,56.65
2023-09-13T09:03:22.146Z,56.57
2023-09-13T09:04:25.243Z,56.83
2023-09-13T09:05:31.451Z,56.63
2023-09-13T09:06:34.801Z,56.38
2023-09-13T09:07:37.089Z,56.52
2023-09-13T09:08:41.463Z,56.29
2023-09-13T09:09:45.562Z,56.84
2023-09-13T09:10:53.017Z,56.09
2023-09-13T09:11:58.776Z,55.91
2023-09-13T09:13:03.123Z,56.42
2023-09-13T09:14:09.687Z,56.21
2023-09-13T09:15:15.103Z,56.43
2023-09-13T09:16:19.002Z,55.42
2023-09-13T09:17:26.128Z,54.99
2023-09-13T09:18:31.573Z,54.87
2023-09-13T09:19:34.815Z,55.37
2023-09-13T09:20:39.660Z,55.27
2023-09-13T09:21:43.013Z,54.61
2023-09-13T09:22:45.278Z,54.97
2023-09-13T09:23:48.574Z,54.52
2023-09-13T09:24:51.197Z,54.69
2023-09-13T09:25:55.108Z,55.18
2023-09-13T09:26:57.441Z,55.18
2023-09-13T09:28:01.343Z,55.51
2023-09-13T09:29:12.949Z,55.49
2023-09-13T09:30:19.086Z,56.00
2023-09-13T09:31:25.186Z,55.52
2023-09-13T09:32:29.871Z,55.67
2023-09-13T09:33:33.127Z,55.62
2023-09-13T09:34:39.607Z,55.75
2023-09-13T09:35:54.542Z,55.33
2023-09-13T09:37:05.018Z,55.07
2023-09-13T09:38:21.811Z,55.28
2023-09-13T09:39:24.767Z,55.54
2023-09-13T09:40:29.228Z,55.91
2023-09-13T09:41:34.205Z,55.67
2023-09-13T09:42:38.460Z,55.68
2023-09-13T09:43:45.644Z,55.52
2023-09-13T09:44:47.957Z,55.75
2023-09-13T09:45:51.268Z,55.55
2023-09-13T09:46:53.373Z,55.80
2023-09-13T09:47:57.968Z,55.83
2023-09-13T09:49:00.763Z,55.60
2023-09-13T09:50:05.870Z,55.43
2023-09-13T09:51:09.844Z,55.29
2023-09-13T09:52:13.269Z,54.72
2023-09-13T09:53:18.282Z,54.72
2023-09-13T09:54:21.767Z,54.70
2023-09-13T09:55:26.309Z,55.53
2023-09-13T09:56:29.443Z,55.76
2023-09-13T09:57:33.143Z,55.41
2023-09-13T09:58:36.285Z,55.00
2023-09-13T09:59:38.738Z,55.61
2023-09-13T10:00:48.993Z,55.55
2023-09-13T10:01:57.568Z,55.10
2023-09-13T10:03:00.817Z,55.14
2023-09-13T10:04:09.719Z,55.18
2023-09-13T10:05:14.203Z,55.75
2023-09-13T10:06:19.830Z,55.38
2023-09-13T10:07:22.894Z,55.90
2023-09-13T10:08:39.293Z,55.97
2023-09-13T10:09:42.977Z,55.78
2023-09-13T10:10:45.260Z,55.73
2023-09-13T10:11:48.136Z,55.50
2023-09-13T10:12:52.098Z,55.92
2023-09-13T10:13:55.081Z,55.60
2023-09-13T10:14:58.898Z,55.99
2023-09-13T10:16:03.419Z,55.89
2023-09-13T10:17:07.233Z,55.21
2023-09-13T10:18:13.867Z,55.31
2023-09-13T10:19:16.307Z,55.51
2023-09-13T10:20:21.449Z,56.31
2023-09-13T10:21:26.118Z,56.14
2023-09-13T10:22:31.405Z,56.48
2023-09-13T10:23:39.267Z,55.93
2023-09-13T10:24:51.122Z,56.02
2023-09-13T10:25:54.646Z,57.13
2023-09-13T10:26:58.424Z,57.27
2023-09-13T10:28:02.331Z,57.49
2023-09-13T10:29:13.110Z,57.49
2023-09-13T10:30:18.849Z,56.57
2023-09-13T10:31:27.025Z,56.08
2023-09-13T10:32:33.854Z,56.02
2023-09-13T10:33:37.118Z,56.37
2023-09-13T10:34:48.533Z,56.57
2023-09-13T10:35:55.569Z,56.92
2023-09-13T10:37:06.489Z,57.64
2023-09-13T10:38:14.648Z,57.05
2023-09-13T10:39:23.619Z,57.70
2023-09-13T10:40:34.409Z,57.77
2023-09-13T10:41:44.020Z,58.34
2023-09-13T10:42:47.447Z,58.65
2023-09-13T10:43:51.227Z,59.13
2023-09-13T10:44:54.371Z,58.85
2023-09-13T10:45:57.594Z,58.47
2023-09-13T10:46:59.855Z,58.00
2023-09-13T10:48:04.794Z,57.60
2023-09-13T10:49:07.011Z,58.39
2023-09-13T10:50:11.078Z,58.10
2023-09-13T10:51:16.231Z,57.62
2023-09-13T10:52:22.498Z,57.72
2023-09-13T10:53:25.074Z,58.40
2023-09-13T10:54:30.533Z,58.04
2023-09-13T10:55:34.094Z,57.61
2023-09-13T10:56:36.872Z,57.58
2023-09-13T10:57:41.856Z,58.02
2023-09-13T10:58:46.066Z,57.88
2023-09-13T10:59:50.533Z,58.36
2023-09-13T11:00:55.944Z,58.22
2023-09-13T11:01:59.501Z,57.49
2023-09-13T11:03:01.939Z,57.47
2023-09-13T11:04:06.810Z,57.26
2023-09-13T11:05:10.624Z,56.82
2023-09-13T11:06:16.364Z,57.50
2023-09-13T11:07:20.926Z,57.41
2023-09-13T11:08:29.799Z,58.82
2023-09-13T11:09:33.045Z,57.90
2023-09-13T11:10:35.495Z,58.94
2023-09-13T11:11:38.544Z,58.35
2023-09-13T11:12:41.232Z,58.77
2023-09-13T11:13:45.207Z,58.79
2023-09-13T11:14:51.364Z,59.58
2023-09-13T11:15:57.102Z,59.04
2023-09-13T11:17:10.752Z,60.84
2023-09-13T11:18:17.648Z,61.09
2023-09-13T11:19:27.109Z,60.42
2023-09-13T11:20:36.207Z,60.54
2023-09-13T11:21:48.963Z,59.43
2023-09-13T11:24:31.355Z,61.17
2023-09-13T11:25:58.408Z,61.65
2023-09-13T11:27:12.728Z,61.32
2023-09-13T11:28:30.378Z,60.33
2023-09-13T11:29:41.533Z,60.06
2023-09-13T11:30:51.807Z,60.02
2023-09-13T11:32:02.308Z,60.22
2023-09-13T11:33:06.388Z,60.83
2023-09-13T11:34:14.558Z,60.85
2023-09-13T11:35:17.780Z,60.55
2023-09-13T11:36:23.760Z,60.46
2023-09-13T11:37:27.693Z,60.90
2023-09-13T11:38:31.598Z,60.83
2023-09-13T11:39:33.845Z,61.55
2023-09-13T11:40:37.151Z,61.32
2023-09-13T11:41:54.194Z,60.35
2023-09-13T11:43:05.615Z,60.66
2023-09-13T11:44:24.545Z,60.17
2023-09-13T11:45:37.407Z,60.24
2023-09-13T11:46:40.004Z,60.09
2023-09-13T11:47:43.304Z,60.36
2023-09-13T11:48:58.403Z,59.78
2023-09-13T11:50:12.638Z,61.42
2023-09-13T11:51:22.281Z,60.84
2023-09-13T11:52:30.517Z,60.67
2023-09-13T11:53:36.201Z,61.79
2023-09-13T11:55:05.379Z,60.87
2023-09-13T11:56:44.065Z,60.56
2023-09-13T11:58:59.464Z,60.79
2023-09-13T12:00:07.024Z,61.10
2023-09-13T12:01:15.278Z,59.26
2023-09-13T12:02:21.189Z,60.61
2023-09-13T12:03:41.411Z,60.37
2023-09-13T12:04:53.915Z,60.86
2023-09-13T12:06:17.850Z,61.37
2023-09-13T12:07:21.471Z,60.95
2023-09-13T12:08:30.493Z,60.24
2023-09-13T12:09:37.765Z,60.87
2023-09-13T12:10:41.726Z,60.77
2023-09-13T12:11:52.415Z,61.10
2023-09-13T12:13:08.527Z,60.98
2023-09-13T12:14:29.159Z,60.86
2023-09-13T12:17:04.460Z,61.69
2023-09-13T12:18:07.500Z,60.89
2023-09-13T12:19:12.996Z,62.37
2023-09-13T12:20:14.962Z,61.61
2023-09-13T12:21:18.311Z,61.79
2023-09-13T12:22:23.797Z,61.88
2023-09-13T12:23:28.783Z,61.97
2023-09-13T12:24:31.925Z,61.60
2023-09-13T12:25:36.792Z,61.46
2023-09-13T12:26:38.804Z,60.97
2023-09-13T12:27:42.455Z,61.78
2023-09-13T12:28:47.046Z,61.56
2023-09-13T12:29:50.290Z,61.88
2023-09-13T12:30:52.782Z,62.53
2023-09-13T12:31:58.566Z,62.54
2023-09-13T12:33:00.660Z,62.39
2023-09-13T12:34:03.998Z,62.29
2023-09-13T12:35:07.116Z,62.45
2023-09-13T12:36:11.119Z,62.14
2023-09-13T12:37:14.804Z,62.10
2023-09-13T12:38:18.101Z,62.33
2023-09-13T12:39:21.848Z,62.64
2023-09-13T12:40:28.864Z,62.47
2023-09-13T12:41:33.471Z,62.64
2023-09-13T12:42:39.863Z,62.78
2023-09-13T12:43:43.857Z,61.99
2023-09-13T12:44:48.097Z,62.41
2023-09-13T12:45:50.578Z,61.98
2023-09-13T12:46:53.849Z,61.95
2023-09-13T12:47:57.001Z,61.81
2023-09-13T12:49:01.148Z,61.82
2023-09-13T12:50:09.620Z,61.85
2023-09-13T12:51:14.631Z,62.04
2023-09-13T12:52:17.003Z,62.33
2023-09-13T12:53:20.181Z,62.37
2023-09-13T12:54:22.371Z,61.77
2023-09-13T12:55:26.073Z,62.59
2023-09-13T12:56:28.457Z,61.82
2023-09-13T12:57:33.541Z,62.29
2023-09-13T12:58:47.004Z,62.49
2023-09-13T12:59:52.589Z,62.53
2023-09-13T13:00:56.087Z,61.85
2023-09-13T13:02:00.608Z,62.58
2023-09-13T13:03:02.710Z,62.79
2023-09-13T13:04:08.069Z,62.63
2023-09-13T13:05:14.412Z,63.26
2023-09-13T13:06:17.796Z,63.04
2023-09-13T13:07:24.464Z,62.73
2023-09-13T13:08:36.821Z,62.43
2023-09-13T13:09:38.778Z,62.76
2023-09-13T13:10:58.699Z,62.17
2023-09-13T13:12:01.393Z,63.13
2023-09-13T13:13:05.892Z,62.58
2023-09-13T13:14:14.706Z,62.95
2023-09-13T13:15:17.896Z,61.53
2023-09-13T13:16:32.473Z,62.15
2023-09-13T13:17:43.050Z,62.38
2023-09-13T13:18:52.664Z,62.62
2023-09-13T13:19:57.819Z,61.83
2023-09-13T13:21:08.331Z,62.05
2023-09-13T13:22:13.029Z,61.93
2023-09-13T13:23:16.076Z,62.33
2023-09-13T13:24:19.392Z,62.34
2023-09-13T13:25:22.751Z,62.27
2023-09-13T13:26:26.101Z,62.56
2023-09-13T13:27:30.000Z,62.27
2023-09-13T13:28:34.557Z,62.16
2023-09-13T13:29:37.639Z,62.71
2023-09-13T13:30:40.642Z,62.27
2023-09-13T13:31:42.674Z,62.44
2023-09-13T13:32:45.597Z,62.01
2023-09-13T13:33:48.335Z,61.94
2023-09-13T13:34:52.053Z,62.59
2023-09-13T13:35:54.095Z,62.12
2023-09-13T13:36:57.018Z,62.88
2023-09-13T13:37:58.947Z,62.11
2023-09-13T13:39:01.871Z,62.27
2023-09-13T13:40:04.375Z,62.92
2023-09-13T13:41:09.208Z,62.71
2023-09-13T13:42:11.455Z,62.40
2023-09-13T13:43:14.416Z,63.07
2023-09-13T13:44:18.829Z,62.60
2023-09-13T13:45:22.040Z,62.78
2023-09-13T13:46:24.006Z,62.77
2023-09-13T13:47:26.939Z,62.59
2023-09-13T13:48:29.840Z,62.93
2023-09-13T13:49:32.853Z,62.54
2023-09-13T13:50:35.141Z,62.89
2023-09-13T13:51:38.827Z,62.56
2023-09-13T13:52:40.872Z,62.47
2023-09-13T13:53:44.016Z,62.49
2023-09-13T13:54:46.175Z,62.22
2023-09-13T13:55:49.111Z,63.03
2023-09-13T13:56:51.220Z,62.66
2023-09-13T13:57:54.080Z,62.73
2023-09-13T13:58:55.926Z,62.36
2023-09-13T14:00:01.473Z,62.43
2023-09-13T14:01:13.926Z,62.59